LDA9063 LOWW-LCLK
Flight info
| Callsign | LDA9063 |
|---|---|
| Flight time | 2h 47m |
| Altitude | 37000 |
| Route | ARSIN DCT NALOX DCT BABIT DCT NISVA N131 RODIP UN131 KULAR UT39 TOMBI M855 DASNI M601 BONEK |
| Aircraft | B738/M-SDE2E3FGHIRWXY/LB1 |
Departure
| Time | 2026-04-22 07:36 |
|---|---|
| Airport | Vienna International Airport (LOWW) |
Arrival
| Time | 2026-04-22 10:24 |
|---|---|
| Airport | Larnaca International Airport (LCLK) |
| Time | Latitude | Longitude | Altitude | Speed | Heading |
|---|---|---|---|---|---|
| 2026-04-22 07:13 | 48.11811 | 16.57043 | 621 ft | 0 kts | 205° |
| 2026-04-22 07:29 | 48.11812 | 16.57044 | 608 ft | 1 kts | 205° |
| 2026-04-22 07:29 | 48.11834 | 16.57059 | 620 ft | 4 kts | 205° |
| 2026-04-22 07:30 | 48.11856 | 16.57074 | 608 ft | 4 kts | 189° |
| 2026-04-22 07:30 | 48.11877 | 16.57068 | 619 ft | 4 kts | 127° |
| 2026-04-22 07:30 | 48.11888 | 16.57042 | 608 ft | 1 kts | 116° |
| 2026-04-22 07:30 | 48.11889 | 16.57037 | 619 ft | 0 kts | 116° |
| 2026-04-22 07:32 | 48.11886 | 16.57046 | 608 ft | 3 kts | 116° |
| 2026-04-22 07:33 | 48.11868 | 16.57102 | 616 ft | 9 kts | 116° |
| 2026-04-22 07:33 | 48.11854 | 16.57200 | 619 ft | 11 kts | 97° |
| 2026-04-22 07:33 | 48.11822 | 16.57311 | 618 ft | 13 kts | 122° |
| 2026-04-22 07:33 | 48.11739 | 16.57376 | 616 ft | 15 kts | 164° |
| 2026-04-22 07:34 | 48.11629 | 16.57421 | 623 ft | 17 kts | 165° |
| 2026-04-22 07:34 | 48.11505 | 16.57459 | 608 ft | 19 kts | 186° |
| 2026-04-22 07:34 | 48.11377 | 16.57377 | 620 ft | 21 kts | 205° |
| 2026-04-22 07:34 | 48.11240 | 16.57280 | 612 ft | 23 kts | 206° |
| 2026-04-22 07:35 | 48.11096 | 16.57174 | 611 ft | 19 kts | 206° |
| 2026-04-22 07:35 | 48.11060 | 16.57083 | 608 ft | 15 kts | 289° |
| 2026-04-22 07:35 | 48.11146 | 16.56813 | 619 ft | 59 kts | 296° |
| 2026-04-22 07:35 | 48.11435 | 16.55927 | 615 ft | 128 kts | 296° |
| 2026-04-22 07:36 | 48.11887 | 16.54537 | 923 ft | 155 kts | 296° |
| 2026-04-22 07:36 | 48.12342 | 16.53048 | 1725 ft | 160 kts | 290° |
| 2026-04-22 07:36 | 48.12339 | 16.51317 | 2352 ft | 181 kts | 249° |
| 2026-04-22 07:36 | 48.11435 | 16.49854 | 2747 ft | 210 kts | 209° |
| 2026-04-22 07:37 | 48.10047 | 16.48968 | 3196 ft | 223 kts | 205° |
| 2026-04-22 07:37 | 48.08567 | 16.48025 | 3486 ft | 240 kts | 205° |
| 2026-04-22 07:37 | 48.06949 | 16.47282 | 3894 ft | 255 kts | 185° |
| 2026-04-22 07:37 | 48.05096 | 16.47504 | 4168 ft | 279 kts | 169° |
| 2026-04-22 07:38 | 48.03170 | 16.47980 | 5018 ft | 279 kts | 171° |
| 2026-04-22 07:38 | 48.01242 | 16.48386 | 5909 ft | 279 kts | 172° |
| 2026-04-22 07:38 | 47.99301 | 16.48755 | 6699 ft | 282 kts | 172° |
| 2026-04-22 07:38 | 47.97368 | 16.49121 | 7437 ft | 284 kts | 171° |
| 2026-04-22 07:39 | 47.95461 | 16.49927 | 8133 ft | 287 kts | 157° |
| 2026-04-22 07:39 | 47.93613 | 16.51124 | 8882 ft | 289 kts | 154° |
| 2026-04-22 07:39 | 47.91771 | 16.52399 | 9610 ft | 293 kts | 153° |
| 2026-04-22 07:39 | 47.89917 | 16.53681 | 10374 ft | 294 kts | 153° |
| 2026-04-22 07:40 | 47.88008 | 16.54982 | 10743 ft | 312 kts | 153° |
| 2026-04-22 07:40 | 47.85985 | 16.56345 | 10920 ft | 333 kts | 154° |
| 2026-04-22 07:40 | 47.83807 | 16.57792 | 11168 ft | 351 kts | 154° |
| 2026-04-22 07:40 | 47.81534 | 16.59287 | 11724 ft | 358 kts | 154° |
| 2026-04-22 07:41 | 47.79247 | 16.60781 | 12430 ft | 360 kts | 154° |
| 2026-04-22 07:41 | 47.76939 | 16.62284 | 13143 ft | 363 kts | 154° |
| 2026-04-22 07:41 | 47.74634 | 16.63783 | 13786 ft | 367 kts | 154° |
| 2026-04-22 07:41 | 47.72280 | 16.65313 | 14457 ft | 371 kts | 154° |
| 2026-04-22 07:42 | 47.69894 | 16.66863 | 15115 ft | 375 kts | 154° |
| 2026-04-22 07:42 | 47.67515 | 16.68406 | 15783 ft | 379 kts | 154° |
| 2026-04-22 07:42 | 47.65086 | 16.69980 | 16431 ft | 382 kts | 154° |
| 2026-04-22 07:42 | 47.62625 | 16.71574 | 17054 ft | 387 kts | 154° |
| 2026-04-22 07:43 | 47.60143 | 16.73178 | 17651 ft | 390 kts | 155° |
| 2026-04-22 07:43 | 47.57610 | 16.74718 | 18245 ft | 395 kts | 160° |
| 2026-04-22 07:43 | 47.54915 | 16.75663 | 18837 ft | 400 kts | 172° |
| 2026-04-22 07:43 | 47.52162 | 16.75990 | 19447 ft | 403 kts | 175° |
| 2026-04-22 07:44 | 47.49345 | 16.76227 | 19994 ft | 407 kts | 176° |
| 2026-04-22 07:44 | 47.46496 | 16.76455 | 20480 ft | 412 kts | 176° |
| 2026-04-22 07:44 | 47.43624 | 16.76693 | 21010 ft | 415 kts | 176° |
| 2026-04-22 07:44 | 47.40717 | 16.76945 | 21587 ft | 417 kts | 176° |
| 2026-04-22 07:45 | 47.37812 | 16.77209 | 22095 ft | 420 kts | 176° |
| 2026-04-22 07:45 | 47.34876 | 16.77483 | 22580 ft | 423 kts | 176° |
| 2026-04-22 07:45 | 47.31964 | 16.77758 | 23053 ft | 426 kts | 176° |
| 2026-04-22 07:45 | 47.28980 | 16.78042 | 23468 ft | 430 kts | 176° |
| 2026-04-22 07:46 | 47.25970 | 16.78327 | 23901 ft | 433 kts | 176° |
| 2026-04-22 07:46 | 47.22993 | 16.78610 | 24357 ft | 435 kts | 176° |
| 2026-04-22 07:46 | 47.19958 | 16.78898 | 24807 ft | 437 kts | 176° |
| 2026-04-22 07:46 | 47.16908 | 16.79187 | 25205 ft | 440 kts | 176° |
| 2026-04-22 07:47 | 47.13835 | 16.79479 | 25581 ft | 443 kts | 176° |
| 2026-04-22 07:47 | 47.10742 | 16.79772 | 25956 ft | 446 kts | 176° |
| 2026-04-22 07:47 | 47.07641 | 16.80064 | 26341 ft | 448 kts | 176° |
| 2026-04-22 07:47 | 47.04554 | 16.80353 | 26712 ft | 450 kts | 177° |
| 2026-04-22 07:48 | 47.01410 | 16.80648 | 27068 ft | 452 kts | 177° |
| 2026-04-22 07:48 | 46.98254 | 16.80945 | 27409 ft | 455 kts | 177° |
| 2026-04-22 07:48 | 46.95084 | 16.81242 | 27718 ft | 458 kts | 177° |
| 2026-04-22 07:48 | 46.91886 | 16.81562 | 28034 ft | 460 kts | 174° |
| 2026-04-22 07:49 | 46.88786 | 16.82743 | 28302 ft | 464 kts | 154° |
| 2026-04-22 07:49 | 46.86101 | 16.85250 | 28641 ft | 465 kts | 139° |
| 2026-04-22 07:49 | 46.83925 | 16.88756 | 28884 ft | 467 kts | 123° |
| 2026-04-22 07:49 | 46.82174 | 16.92762 | 29161 ft | 469 kts | 121° |
| 2026-04-22 07:50 | 46.80464 | 16.96833 | 29402 ft | 472 kts | 121° |
| 2026-04-22 07:50 | 46.78750 | 17.00943 | 29646 ft | 474 kts | 121° |
| 2026-04-22 07:50 | 46.77024 | 17.05060 | 29905 ft | 476 kts | 121° |
| 2026-04-22 07:50 | 46.75303 | 17.09122 | 30237 ft | 475 kts | 121° |
| 2026-04-22 07:51 | 46.73552 | 17.13213 | 30620 ft | 474 kts | 121° |
| 2026-04-22 07:51 | 46.71797 | 17.17279 | 30910 ft | 475 kts | 122° |
| 2026-04-22 07:51 | 46.70031 | 17.21355 | 31166 ft | 476 kts | 122° |
| 2026-04-22 07:51 | 46.68257 | 17.25434 | 31470 ft | 476 kts | 122° |
| 2026-04-22 07:52 | 46.66484 | 17.29502 | 31814 ft | 475 kts | 122° |
| 2026-04-22 07:52 | 46.64709 | 17.33572 | 32097 ft | 476 kts | 122° |
| 2026-04-22 07:52 | 46.62933 | 17.37640 | 32376 ft | 476 kts | 122° |
| 2026-04-22 07:52 | 46.61152 | 17.41712 | 32661 ft | 476 kts | 122° |
| 2026-04-22 07:53 | 46.59394 | 17.45727 | 32880 ft | 478 kts | 122° |
| 2026-04-22 07:53 | 46.57599 | 17.49821 | 33133 ft | 478 kts | 122° |
| 2026-04-22 07:53 | 46.55805 | 17.53906 | 33438 ft | 478 kts | 122° |
| 2026-04-22 07:53 | 46.54018 | 17.57973 | 33727 ft | 477 kts | 122° |
| 2026-04-22 07:54 | 46.52247 | 17.61996 | 33923 ft | 479 kts | 122° |
| 2026-04-22 07:54 | 46.50444 | 17.66084 | 34129 ft | 480 kts | 122° |
| 2026-04-22 07:54 | 46.48640 | 17.70170 | 34407 ft | 479 kts | 122° |
| 2026-04-22 07:54 | 46.46841 | 17.74237 | 34701 ft | 478 kts | 122° |
| 2026-04-22 07:55 | 46.45043 | 17.78297 | 34919 ft | 479 kts | 122° |
| 2026-04-22 07:55 | 46.43231 | 17.82383 | 35088 ft | 481 kts | 123° |
| 2026-04-22 07:55 | 46.41434 | 17.86427 | 35277 ft | 482 kts | 123° |
| 2026-04-22 07:55 | 46.39620 | 17.90505 | 35527 ft | 481 kts | 123° |
| 2026-04-22 07:56 | 46.37804 | 17.94581 | 35743 ft | 481 kts | 123° |
| 2026-04-22 07:56 | 46.35982 | 17.98667 | 35932 ft | 482 kts | 123° |
| 2026-04-22 07:56 | 46.34161 | 18.02744 | 36137 ft | 482 kts | 123° |
| 2026-04-22 07:56 | 46.32339 | 18.06815 | 36361 ft | 481 kts | 123° |
| 2026-04-22 07:57 | 46.30538 | 18.10835 | 36575 ft | 481 kts | 123° |
| 2026-04-22 07:57 | 46.28711 | 18.14905 | 36734 ft | 482 kts | 123° |
| 2026-04-22 07:57 | 46.26883 | 18.18973 | 36891 ft | 483 kts | 123° |
| 2026-04-22 07:57 | 46.25055 | 18.23040 | 37119 ft | 482 kts | 123° |
| 2026-04-22 07:58 | 46.21382 | 18.31182 | 37180 ft | 484 kts | 123° |
| 2026-04-22 07:58 | 46.17715 | 18.39283 | 37176 ft | 479 kts | 123° |
| 2026-04-22 07:59 | 46.14079 | 18.47300 | 37180 ft | 475 kts | 123° |
| 2026-04-22 07:59 | 46.10461 | 18.55254 | 37185 ft | 472 kts | 123° |
| 2026-04-22 08:00 | 46.06860 | 18.63146 | 37186 ft | 470 kts | 123° |
| 2026-04-22 08:00 | 46.03286 | 18.70959 | 37192 ft | 470 kts | 123° |
| 2026-04-22 08:01 | 45.99675 | 18.78835 | 37179 ft | 472 kts | 123° |
| 2026-04-22 08:01 | 45.96038 | 18.86744 | 37182 ft | 478 kts | 124° |
| 2026-04-22 08:02 | 45.92157 | 18.94559 | 37165 ft | 483 kts | 134° |
| 2026-04-22 08:02 | 45.87373 | 19.01348 | 37167 ft | 484 kts | 137° |
| 2026-04-22 08:03 | 45.82478 | 19.08035 | 37163 ft | 485 kts | 137° |
| 2026-04-22 08:03 | 45.77632 | 19.14714 | 37164 ft | 486 kts | 137° |
| 2026-04-22 08:04 | 45.72784 | 19.21454 | 37166 ft | 484 kts | 137° |
| 2026-04-22 08:04 | 45.67960 | 19.28167 | 37164 ft | 482 kts | 137° |
| 2026-04-22 08:05 | 45.63155 | 19.34841 | 37159 ft | 480 kts | 137° |
| 2026-04-22 08:05 | 45.58393 | 19.41434 | 37164 ft | 478 kts | 137° |
| 2026-04-22 08:06 | 45.53618 | 19.48027 | 37166 ft | 477 kts | 137° |
| 2026-04-22 08:06 | 45.48850 | 19.54593 | 37169 ft | 476 kts | 137° |
| 2026-04-22 08:07 | 45.44082 | 19.61140 | 37160 ft | 476 kts | 137° |
| 2026-04-22 08:07 | 45.39302 | 19.67689 | 37158 ft | 476 kts | 137° |
| 2026-04-22 08:08 | 45.34546 | 19.74191 | 37157 ft | 477 kts | 137° |
| 2026-04-22 08:08 | 45.29751 | 19.80729 | 37152 ft | 477 kts | 137° |
| 2026-04-22 08:09 | 45.25757 | 19.86161 | 37157 ft | 478 kts | 138° |
| 2026-04-22 08:09 | 45.20942 | 19.92695 | 37156 ft | 479 kts | 138° |
| 2026-04-22 08:10 | 45.16113 | 19.99235 | 37157 ft | 480 kts | 138° |
| 2026-04-22 08:10 | 45.11266 | 20.05781 | 37156 ft | 481 kts | 138° |
| 2026-04-22 08:11 | 45.06413 | 20.12319 | 37157 ft | 482 kts | 139° |
| 2026-04-22 08:11 | 45.01544 | 20.18862 | 37158 ft | 483 kts | 139° |
| 2026-04-22 08:12 | 44.96664 | 20.25403 | 37157 ft | 484 kts | 139° |
| 2026-04-22 08:12 | 44.91772 | 20.31944 | 37158 ft | 485 kts | 139° |
| 2026-04-22 08:13 | 44.86872 | 20.38483 | 37154 ft | 485 kts | 139° |
| 2026-04-22 08:13 | 44.83625 | 20.42807 | 37159 ft | 485 kts | 139° |
| 2026-04-22 08:14 | 44.77062 | 20.51523 | 37157 ft | 485 kts | 139° |
| 2026-04-22 08:14 | 44.72184 | 20.57983 | 37153 ft | 485 kts | 139° |
| 2026-04-22 08:15 | 44.67275 | 20.64468 | 37156 ft | 484 kts | 139° |
| 2026-04-22 08:15 | 44.62358 | 20.70947 | 37143 ft | 484 kts | 139° |
| 2026-04-22 08:16 | 44.57441 | 20.77406 | 37147 ft | 484 kts | 139° |
| 2026-04-22 08:16 | 44.52532 | 20.83851 | 37149 ft | 483 kts | 139° |
| 2026-04-22 08:17 | 44.47617 | 20.90284 | 37138 ft | 484 kts | 140° |
| 2026-04-22 08:17 | 44.42700 | 20.96698 | 37143 ft | 483 kts | 140° |
| 2026-04-22 08:18 | 44.37778 | 21.03103 | 37140 ft | 483 kts | 140° |
| 2026-04-22 08:18 | 44.32855 | 21.09495 | 37137 ft | 483 kts | 140° |
| 2026-04-22 08:19 | 44.27929 | 21.15880 | 37139 ft | 483 kts | 140° |
| 2026-04-22 08:19 | 44.23003 | 21.22248 | 37133 ft | 483 kts | 140° |
| 2026-04-22 08:20 | 44.18065 | 21.28614 | 37126 ft | 484 kts | 140° |
| 2026-04-22 08:20 | 44.13121 | 21.34976 | 37132 ft | 484 kts | 140° |
| 2026-04-22 08:21 | 44.08169 | 21.41331 | 37120 ft | 485 kts | 140° |
| 2026-04-22 08:21 | 44.03210 | 21.47680 | 37121 ft | 485 kts | 140° |
| 2026-04-22 08:22 | 43.98240 | 21.54026 | 37122 ft | 486 kts | 141° |
| 2026-04-22 08:22 | 43.93256 | 21.60377 | 37123 ft | 487 kts | 141° |
| 2026-04-22 08:23 | 43.88261 | 21.66729 | 37121 ft | 487 kts | 141° |
| 2026-04-22 08:23 | 43.83259 | 21.73074 | 37114 ft | 488 kts | 141° |
| 2026-04-22 08:24 | 43.78252 | 21.79407 | 37108 ft | 488 kts | 141° |
| 2026-04-22 08:24 | 43.73242 | 21.85728 | 37111 ft | 488 kts | 141° |
| 2026-04-22 08:25 | 43.68231 | 21.92038 | 37103 ft | 487 kts | 141° |
| 2026-04-22 08:25 | 43.63214 | 21.98340 | 37103 ft | 487 kts | 141° |
| 2026-04-22 08:26 | 43.58197 | 22.04628 | 37097 ft | 486 kts | 141° |
| 2026-04-22 08:26 | 43.53192 | 22.10887 | 37095 ft | 485 kts | 141° |
| 2026-04-22 08:27 | 43.48194 | 22.17124 | 37110 ft | 485 kts | 141° |
| 2026-04-22 08:27 | 43.43225 | 22.23307 | 37103 ft | 485 kts | 141° |
| 2026-04-22 08:28 | 43.38223 | 22.29517 | 37102 ft | 484 kts | 142° |
| 2026-04-22 08:28 | 43.33220 | 22.35713 | 37095 ft | 484 kts | 142° |
| 2026-04-22 08:29 | 43.28218 | 22.41895 | 37101 ft | 483 kts | 142° |
| 2026-04-22 08:29 | 43.23220 | 22.48056 | 37099 ft | 483 kts | 142° |
| 2026-04-22 08:30 | 43.18214 | 22.54215 | 37084 ft | 484 kts | 142° |
| 2026-04-22 08:30 | 43.13198 | 22.60371 | 37087 ft | 484 kts | 142° |
| 2026-04-22 08:31 | 43.08175 | 22.66522 | 37078 ft | 485 kts | 142° |
| 2026-04-22 08:32 | 43.00631 | 22.75740 | 37070 ft | 486 kts | 142° |
| 2026-04-22 08:32 | 42.95600 | 22.81901 | 37077 ft | 486 kts | 142° |
| 2026-04-22 08:33 | 42.90653 | 22.88219 | 37063 ft | 487 kts | 141° |
| 2026-04-22 08:33 | 42.85731 | 22.94570 | 37061 ft | 487 kts | 141° |
| 2026-04-22 08:34 | 42.80804 | 23.00882 | 37059 ft | 486 kts | 141° |
| 2026-04-22 08:34 | 42.75869 | 23.07165 | 37056 ft | 485 kts | 141° |
| 2026-04-22 08:35 | 42.70932 | 23.13428 | 37054 ft | 485 kts | 141° |
| 2026-04-22 08:35 | 42.65997 | 23.19678 | 37051 ft | 485 kts | 141° |
| 2026-04-22 08:36 | 42.61059 | 23.25916 | 37059 ft | 485 kts | 141° |
| 2026-04-22 08:36 | 42.56112 | 23.32152 | 37037 ft | 485 kts | 141° |
| 2026-04-22 08:37 | 42.51215 | 23.38318 | 37053 ft | 483 kts | 142° |
| 2026-04-22 08:37 | 42.46284 | 23.44505 | 37045 ft | 483 kts | 142° |
| 2026-04-22 08:38 | 42.41343 | 23.50688 | 37056 ft | 484 kts | 142° |
| 2026-04-22 08:38 | 42.36403 | 23.56864 | 37060 ft | 483 kts | 142° |
| 2026-04-22 08:39 | 42.31460 | 23.63032 | 37058 ft | 484 kts | 142° |
| 2026-04-22 08:39 | 42.26483 | 23.69160 | 37060 ft | 483 kts | 143° |
| 2026-04-22 08:40 | 42.21468 | 23.75237 | 37058 ft | 484 kts | 143° |
| 2026-04-22 08:40 | 42.16456 | 23.81306 | 37057 ft | 485 kts | 143° |
| 2026-04-22 08:41 | 42.11466 | 23.87343 | 37066 ft | 484 kts | 143° |
| 2026-04-22 08:41 | 42.06446 | 23.93408 | 37058 ft | 485 kts | 143° |
| 2026-04-22 08:42 | 42.01415 | 23.99472 | 37068 ft | 485 kts | 143° |
| 2026-04-22 08:42 | 41.96409 | 24.05496 | 37071 ft | 485 kts | 143° |
| 2026-04-22 08:43 | 41.91372 | 24.11549 | 37070 ft | 486 kts | 143° |
| 2026-04-22 08:43 | 41.86317 | 24.17609 | 37062 ft | 486 kts | 143° |
| 2026-04-22 08:44 | 41.81289 | 24.23626 | 37053 ft | 486 kts | 143° |
| 2026-04-22 08:44 | 41.76239 | 24.29662 | 37059 ft | 486 kts | 143° |
| 2026-04-22 08:45 | 41.71188 | 24.35684 | 37057 ft | 484 kts | 143° |
| 2026-04-22 08:45 | 41.66177 | 24.41644 | 37058 ft | 483 kts | 143° |
| 2026-04-22 08:46 | 41.61144 | 24.47620 | 37062 ft | 483 kts | 143° |
| 2026-04-22 08:46 | 41.56104 | 24.53583 | 37070 ft | 483 kts | 143° |
| 2026-04-22 08:47 | 41.51102 | 24.59494 | 37063 ft | 482 kts | 143° |
| 2026-04-22 08:47 | 41.46067 | 24.65429 | 37065 ft | 482 kts | 143° |
| 2026-04-22 08:48 | 41.41065 | 24.71315 | 37056 ft | 481 kts | 143° |
| 2026-04-22 08:48 | 41.36054 | 24.77245 | 37055 ft | 481 kts | 143° |
| 2026-04-22 08:49 | 41.31044 | 24.83177 | 37058 ft | 481 kts | 143° |
| 2026-04-22 08:49 | 41.26065 | 24.89059 | 37054 ft | 481 kts | 143° |
| 2026-04-22 08:50 | 41.21054 | 24.94961 | 37059 ft | 479 kts | 143° |
| 2026-04-22 08:50 | 41.16057 | 25.00830 | 37057 ft | 479 kts | 143° |
| 2026-04-22 08:51 | 41.11063 | 25.06689 | 37053 ft | 478 kts | 143° |
| 2026-04-22 08:51 | 41.06088 | 25.12513 | 37055 ft | 478 kts | 143° |
| 2026-04-22 08:52 | 41.01098 | 25.18344 | 37055 ft | 477 kts | 143° |
| 2026-04-22 08:52 | 40.96134 | 25.24130 | 37055 ft | 477 kts | 143° |
| 2026-04-22 08:53 | 40.91154 | 25.29922 | 37056 ft | 476 kts | 143° |
| 2026-04-22 08:53 | 40.86182 | 25.35693 | 37048 ft | 476 kts | 143° |
| 2026-04-22 08:54 | 40.81205 | 25.41462 | 37050 ft | 476 kts | 143° |
| 2026-04-22 08:54 | 40.76470 | 25.47613 | 37055 ft | 480 kts | 135° |
| 2026-04-22 08:55 | 40.72160 | 25.54360 | 37045 ft | 481 kts | 134° |
| 2026-04-22 08:55 | 40.67854 | 25.61103 | 37044 ft | 481 kts | 134° |
| 2026-04-22 08:56 | 40.63505 | 25.67779 | 37049 ft | 480 kts | 135° |
| 2026-04-22 08:56 | 40.59873 | 25.73307 | 37045 ft | 480 kts | 135° |
| 2026-04-22 08:57 | 40.54789 | 25.81031 | 37046 ft | 480 kts | 135° |
| 2026-04-22 08:57 | 40.50419 | 25.87665 | 37047 ft | 480 kts | 135° |
| 2026-04-22 08:58 | 40.46770 | 25.93157 | 37044 ft | 479 kts | 135° |
| 2026-04-22 08:58 | 40.42361 | 25.99737 | 37042 ft | 479 kts | 135° |
| 2026-04-22 08:59 | 40.37956 | 26.06300 | 37047 ft | 478 kts | 135° |
| 2026-04-22 08:59 | 40.33583 | 26.12809 | 37042 ft | 478 kts | 135° |
| 2026-04-22 09:00 | 40.29184 | 26.19349 | 37030 ft | 478 kts | 135° |
| 2026-04-22 09:00 | 40.24783 | 26.25877 | 37040 ft | 477 kts | 135° |
| 2026-04-22 09:01 | 40.20402 | 26.32363 | 37022 ft | 477 kts | 135° |
| 2026-04-22 09:01 | 40.15992 | 26.38876 | 37024 ft | 477 kts | 135° |
| 2026-04-22 09:02 | 40.11547 | 26.45244 | 37020 ft | 475 kts | 139° |
| 2026-04-22 09:02 | 40.06814 | 26.51304 | 37015 ft | 474 kts | 140° |
| 2026-04-22 09:03 | 40.02088 | 26.57245 | 37016 ft | 474 kts | 140° |
| 2026-04-22 09:03 | 39.97346 | 26.63271 | 37019 ft | 474 kts | 140° |
| 2026-04-22 09:04 | 39.92664 | 26.69251 | 37017 ft | 474 kts | 140° |
| 2026-04-22 09:04 | 39.87936 | 26.75279 | 37008 ft | 475 kts | 140° |
| 2026-04-22 09:05 | 39.83200 | 26.81304 | 36987 ft | 474 kts | 140° |
| 2026-04-22 09:05 | 39.78501 | 26.87268 | 36991 ft | 474 kts | 140° |
| 2026-04-22 09:06 | 39.73743 | 26.93232 | 36991 ft | 474 kts | 141° |
| 2026-04-22 09:06 | 39.68933 | 26.99122 | 36972 ft | 474 kts | 141° |
| 2026-04-22 09:07 | 39.64152 | 27.04971 | 36981 ft | 475 kts | 141° |
| 2026-04-22 09:07 | 39.59333 | 27.10868 | 36974 ft | 475 kts | 141° |
| 2026-04-22 09:08 | 39.54548 | 27.16725 | 36972 ft | 475 kts | 141° |
| 2026-04-22 09:08 | 39.49736 | 27.22633 | 36966 ft | 477 kts | 138° |
| 2026-04-22 09:09 | 39.45427 | 27.29213 | 36974 ft | 480 kts | 132° |
| 2026-04-22 09:09 | 39.41291 | 27.35942 | 36982 ft | 480 kts | 133° |
| 2026-04-22 09:10 | 39.37055 | 27.42609 | 36970 ft | 478 kts | 133° |
| 2026-04-22 09:10 | 39.32825 | 27.49191 | 36971 ft | 478 kts | 133° |
| 2026-04-22 09:11 | 39.28572 | 27.55795 | 36983 ft | 477 kts | 133° |
| 2026-04-22 09:11 | 39.24321 | 27.62392 | 36983 ft | 477 kts | 133° |
| 2026-04-22 09:12 | 39.20092 | 27.68947 | 36983 ft | 477 kts | 133° |
| 2026-04-22 09:12 | 39.15833 | 27.75533 | 36981 ft | 477 kts | 133° |
| 2026-04-22 09:13 | 39.11575 | 27.82106 | 36982 ft | 477 kts | 133° |
| 2026-04-22 09:13 | 39.07342 | 27.88625 | 36978 ft | 477 kts | 134° |
| 2026-04-22 09:14 | 39.03077 | 27.95171 | 36981 ft | 477 kts | 134° |
| 2026-04-22 09:14 | 38.98799 | 28.01724 | 36997 ft | 479 kts | 134° |
| 2026-04-22 09:15 | 38.94503 | 28.08293 | 36990 ft | 479 kts | 134° |
| 2026-04-22 09:15 | 38.90233 | 28.14809 | 36997 ft | 479 kts | 134° |
| 2026-04-22 09:16 | 38.85938 | 28.21355 | 36979 ft | 479 kts | 134° |
| 2026-04-22 09:16 | 38.81644 | 28.27885 | 36991 ft | 478 kts | 134° |
| 2026-04-22 09:17 | 38.77365 | 28.34377 | 36976 ft | 478 kts | 134° |
| 2026-04-22 09:17 | 38.73062 | 28.40892 | 36979 ft | 477 kts | 134° |
| 2026-04-22 09:18 | 38.68775 | 28.47371 | 36983 ft | 477 kts | 134° |
| 2026-04-22 09:18 | 38.64481 | 28.53847 | 36982 ft | 477 kts | 134° |
| 2026-04-22 09:19 | 38.60209 | 28.60279 | 36994 ft | 476 kts | 134° |
| 2026-04-22 09:19 | 38.55431 | 28.66001 | 36995 ft | 466 kts | 150° |
| 2026-04-22 09:20 | 38.50096 | 28.70693 | 36990 ft | 465 kts | 151° |
| 2026-04-22 09:20 | 38.44780 | 28.75351 | 36994 ft | 466 kts | 150° |
| 2026-04-22 09:21 | 38.39443 | 28.80086 | 36994 ft | 467 kts | 150° |
| 2026-04-22 09:21 | 38.34139 | 28.84816 | 36989 ft | 467 kts | 150° |
| 2026-04-22 09:22 | 38.28807 | 28.89569 | 36992 ft | 468 kts | 150° |
| 2026-04-22 09:22 | 38.23471 | 28.94312 | 36990 ft | 468 kts | 150° |
| 2026-04-22 09:23 | 38.18125 | 28.99055 | 36995 ft | 467 kts | 150° |
| 2026-04-22 09:23 | 38.12784 | 29.03786 | 36985 ft | 468 kts | 150° |
| 2026-04-22 09:24 | 38.07474 | 29.08482 | 36990 ft | 468 kts | 150° |
| 2026-04-22 09:24 | 38.02117 | 29.13210 | 36987 ft | 467 kts | 150° |
| 2026-04-22 09:25 | 37.96813 | 29.17885 | 36990 ft | 466 kts | 150° |
| 2026-04-22 09:25 | 37.91486 | 29.22567 | 36989 ft | 464 kts | 150° |
| 2026-04-22 09:26 | 37.86176 | 29.27229 | 36989 ft | 463 kts | 150° |
| 2026-04-22 09:26 | 37.80875 | 29.31870 | 36990 ft | 462 kts | 150° |
| 2026-04-22 09:27 | 37.75615 | 29.36463 | 36994 ft | 462 kts | 150° |
| 2026-04-22 09:27 | 37.70323 | 29.41079 | 36999 ft | 461 kts | 150° |
| 2026-04-22 09:28 | 37.65040 | 29.45680 | 36995 ft | 461 kts | 150° |
| 2026-04-22 09:28 | 37.59750 | 29.50280 | 37000 ft | 461 kts | 150° |
| 2026-04-22 09:29 | 37.54495 | 29.54841 | 37003 ft | 460 kts | 150° |
| 2026-04-22 09:29 | 37.49233 | 29.59400 | 37003 ft | 461 kts | 150° |
| 2026-04-22 09:30 | 37.43934 | 29.63985 | 37003 ft | 462 kts | 150° |
| 2026-04-22 09:30 | 37.38633 | 29.68563 | 36998 ft | 462 kts | 150° |
| 2026-04-22 09:31 | 37.33313 | 29.73146 | 36993 ft | 463 kts | 150° |
| 2026-04-22 09:31 | 37.28031 | 29.77710 | 37003 ft | 462 kts | 150° |
| 2026-04-22 09:32 | 37.22710 | 29.82307 | 37010 ft | 463 kts | 150° |
| 2026-04-22 09:32 | 37.17415 | 29.86867 | 37015 ft | 463 kts | 150° |
| 2026-04-22 09:33 | 37.12087 | 29.91450 | 37007 ft | 463 kts | 150° |
| 2026-04-22 09:33 | 37.06792 | 29.95983 | 37009 ft | 463 kts | 150° |
| 2026-04-22 09:34 | 37.01457 | 30.00526 | 37013 ft | 463 kts | 150° |
| 2026-04-22 09:34 | 36.96137 | 30.05054 | 37022 ft | 462 kts | 150° |
| 2026-04-22 09:35 | 36.88179 | 30.11818 | 37021 ft | 462 kts | 150° |
| 2026-04-22 09:35 | 36.82856 | 30.16331 | 37045 ft | 461 kts | 150° |
| 2026-04-22 09:36 | 36.77574 | 30.20811 | 37036 ft | 462 kts | 150° |
| 2026-04-22 09:36 | 36.72243 | 30.25329 | 37047 ft | 462 kts | 150° |
| 2026-04-22 09:37 | 36.66907 | 30.29842 | 37029 ft | 462 kts | 150° |
| 2026-04-22 09:37 | 36.61608 | 30.34314 | 37047 ft | 462 kts | 150° |
| 2026-04-22 09:38 | 36.56263 | 30.38822 | 37056 ft | 463 kts | 150° |
| 2026-04-22 09:38 | 36.50954 | 30.43289 | 37043 ft | 463 kts | 150° |
| 2026-04-22 09:39 | 36.45614 | 30.47775 | 37046 ft | 462 kts | 150° |
| 2026-04-22 09:39 | 36.40272 | 30.52253 | 37047 ft | 462 kts | 150° |
| 2026-04-22 09:40 | 36.34971 | 30.56691 | 37044 ft | 462 kts | 150° |
| 2026-04-22 09:40 | 36.29631 | 30.61158 | 37047 ft | 462 kts | 150° |
| 2026-04-22 09:41 | 36.24318 | 30.65594 | 37037 ft | 462 kts | 150° |
| 2026-04-22 09:41 | 36.18970 | 30.70047 | 37041 ft | 462 kts | 150° |
| 2026-04-22 09:42 | 36.13615 | 30.74502 | 37041 ft | 462 kts | 150° |
| 2026-04-22 09:42 | 36.08303 | 30.78912 | 37037 ft | 462 kts | 152° |
| 2026-04-22 09:43 | 36.02543 | 30.82090 | 37051 ft | 448 kts | 171° |
| 2026-04-22 09:43 | 35.96417 | 30.83000 | 37063 ft | 439 kts | 183° |
| 2026-04-22 09:44 | 35.90335 | 30.83284 | 37054 ft | 440 kts | 183° |
| 2026-04-22 09:44 | 35.84205 | 30.83618 | 37055 ft | 440 kts | 182° |
| 2026-04-22 09:45 | 35.78069 | 30.83995 | 37059 ft | 441 kts | 182° |
| 2026-04-22 09:45 | 35.71950 | 30.84373 | 37059 ft | 442 kts | 182° |
| 2026-04-22 09:46 | 35.66829 | 30.84875 | 37031 ft | 450 kts | 171° |
| 2026-04-22 09:46 | 35.63920 | 30.86389 | 37070 ft | 462 kts | 151° |
| 2026-04-22 09:46 | 35.60805 | 30.90035 | 37067 ft | 474 kts | 127° |
| 2026-04-22 09:47 | 35.59702 | 30.92424 | 37047 ft | 479 kts | 114° |
| 2026-04-22 09:47 | 35.58668 | 30.96317 | 37078 ft | 480 kts | 108° |
| 2026-04-22 09:47 | 35.56797 | 31.04169 | 37057 ft | 482 kts | 108° |
| 2026-04-22 09:48 | 35.54835 | 31.12068 | 37048 ft | 483 kts | 109° |
| 2026-04-22 09:48 | 35.52826 | 31.19948 | 37050 ft | 483 kts | 109° |
| 2026-04-22 09:49 | 35.50813 | 31.27785 | 37053 ft | 483 kts | 109° |
| 2026-04-22 09:49 | 35.48788 | 31.35655 | 37057 ft | 483 kts | 109° |
| 2026-04-22 09:50 | 35.46771 | 31.43479 | 37062 ft | 483 kts | 109° |
| 2026-04-22 09:50 | 35.44742 | 31.51337 | 37063 ft | 483 kts | 109° |
| 2026-04-22 09:51 | 35.42705 | 31.59189 | 36881 ft | 485 kts | 109° |
| 2026-04-22 09:51 | 35.41677 | 31.63147 | 36390 ft | 486 kts | 109° |
| 2026-04-22 09:51 | 35.40654 | 31.67082 | 35953 ft | 482 kts | 110° |
| 2026-04-22 09:52 | 35.39648 | 31.70952 | 35503 ft | 479 kts | 110° |
| 2026-04-22 09:52 | 35.38634 | 31.74837 | 35059 ft | 479 kts | 110° |
| 2026-04-22 09:52 | 35.37614 | 31.78737 | 34620 ft | 480 kts | 110° |
| 2026-04-22 09:52 | 35.36593 | 31.82638 | 34179 ft | 481 kts | 110° |
| 2026-04-22 09:53 | 35.35569 | 31.86542 | 33733 ft | 481 kts | 110° |
| 2026-04-22 09:53 | 35.34543 | 31.90451 | 33285 ft | 482 kts | 110° |
| 2026-04-22 09:53 | 35.33515 | 31.94359 | 32844 ft | 482 kts | 110° |
| 2026-04-22 09:53 | 35.32485 | 31.98274 | 32397 ft | 483 kts | 110° |
| 2026-04-22 09:54 | 35.31452 | 32.02191 | 31952 ft | 483 kts | 110° |
| 2026-04-22 09:54 | 35.30419 | 32.06103 | 31503 ft | 483 kts | 110° |
| 2026-04-22 09:54 | 35.29402 | 32.09977 | 31069 ft | 484 kts | 110° |
| 2026-04-22 09:54 | 35.28371 | 32.13927 | 30616 ft | 485 kts | 110° |
| 2026-04-22 09:55 | 35.27345 | 32.17863 | 30169 ft | 486 kts | 110° |
| 2026-04-22 09:55 | 35.26316 | 32.21804 | 29722 ft | 486 kts | 110° |
| 2026-04-22 09:55 | 35.25283 | 32.25759 | 29276 ft | 487 kts | 110° |
| 2026-04-22 09:55 | 35.24246 | 32.29716 | 28823 ft | 488 kts | 110° |
| 2026-04-22 09:56 | 35.23217 | 32.33630 | 28385 ft | 489 kts | 110° |
| 2026-04-22 09:56 | 35.22173 | 32.37600 | 27942 ft | 489 kts | 110° |
| 2026-04-22 09:56 | 35.21125 | 32.41579 | 27491 ft | 490 kts | 110° |
| 2026-04-22 09:56 | 35.20088 | 32.45505 | 27046 ft | 491 kts | 109° |
| 2026-04-22 09:57 | 35.19036 | 32.49484 | 26600 ft | 491 kts | 109° |
| 2026-04-22 09:57 | 35.17983 | 32.53461 | 26150 ft | 492 kts | 109° |
| 2026-04-22 09:57 | 35.16929 | 32.57440 | 25701 ft | 492 kts | 109° |
| 2026-04-22 09:57 | 35.15870 | 32.61427 | 25249 ft | 492 kts | 109° |
| 2026-04-22 09:58 | 35.14813 | 32.65401 | 24802 ft | 491 kts | 109° |
| 2026-04-22 09:58 | 35.13757 | 32.69366 | 24349 ft | 489 kts | 109° |
| 2026-04-22 09:58 | 35.12725 | 32.73241 | 23895 ft | 482 kts | 109° |
| 2026-04-22 09:58 | 35.11692 | 32.77111 | 23345 ft | 476 kts | 109° |
| 2026-04-22 09:59 | 35.10670 | 32.80936 | 22776 ft | 471 kts | 109° |
| 2026-04-22 09:59 | 35.09653 | 32.84734 | 22189 ft | 467 kts | 109° |
| 2026-04-22 09:59 | 35.08645 | 32.88492 | 21621 ft | 463 kts | 109° |
| 2026-04-22 09:59 | 35.07645 | 32.92215 | 21042 ft | 459 kts | 109° |
| 2026-04-22 10:00 | 35.06651 | 32.95856 | 20478 ft | 455 kts | 110° |
| 2026-04-22 10:00 | 35.05606 | 32.99508 | 19907 ft | 453 kts | 110° |
| 2026-04-22 10:00 | 35.04556 | 33.03117 | 19324 ft | 449 kts | 111° |
| 2026-04-22 10:00 | 35.03514 | 33.06698 | 18760 ft | 445 kts | 110° |
| 2026-04-22 10:01 | 35.02489 | 33.10242 | 18186 ft | 442 kts | 110° |
| 2026-04-22 10:01 | 35.01469 | 33.13776 | 17600 ft | 439 kts | 110° |
| 2026-04-22 10:01 | 35.00460 | 33.17278 | 17028 ft | 435 kts | 110° |
| 2026-04-22 10:01 | 34.99470 | 33.20712 | 16461 ft | 431 kts | 110° |
| 2026-04-22 10:02 | 34.98478 | 33.24140 | 15889 ft | 427 kts | 110° |
| 2026-04-22 10:02 | 34.97495 | 33.27540 | 15308 ft | 422 kts | 110° |
| 2026-04-22 10:02 | 34.96521 | 33.30902 | 14728 ft | 418 kts | 110° |
| 2026-04-22 10:02 | 34.95555 | 33.34231 | 14155 ft | 414 kts | 110° |
| 2026-04-22 10:03 | 34.94596 | 33.37524 | 13583 ft | 409 kts | 110° |
| 2026-04-22 10:03 | 34.93647 | 33.40782 | 13006 ft | 406 kts | 110° |
| 2026-04-22 10:03 | 34.92719 | 33.43964 | 12440 ft | 402 kts | 110° |
| 2026-04-22 10:03 | 34.91788 | 33.47156 | 11867 ft | 398 kts | 110° |
| 2026-04-22 10:04 | 34.90866 | 33.50316 | 11291 ft | 394 kts | 110° |
| 2026-04-22 10:04 | 34.89950 | 33.53454 | 10717 ft | 390 kts | 110° |
| 2026-04-22 10:04 | 34.89040 | 33.56567 | 10143 ft | 388 kts | 110° |
| 2026-04-22 10:04 | 34.88098 | 33.59625 | 9566 ft | 381 kts | 116° |
| 2026-04-22 10:05 | 34.86576 | 33.62159 | 8985 ft | 374 kts | 139° |
| 2026-04-22 10:05 | 34.84446 | 33.63924 | 8416 ft | 367 kts | 155° |
| 2026-04-22 10:05 | 34.82135 | 33.65204 | 7840 ft | 362 kts | 150° |
| 2026-04-22 10:05 | 34.80330 | 33.67298 | 7253 ft | 360 kts | 123° |
| 2026-04-22 10:06 | 34.79364 | 33.70044 | 6701 ft | 357 kts | 103° |
| 2026-04-22 10:06 | 34.79201 | 33.73034 | 6120 ft | 354 kts | 84° |
| 2026-04-22 10:06 | 34.79849 | 33.75905 | 5550 ft | 351 kts | 64° |
| 2026-04-22 10:06 | 34.81236 | 33.78322 | 4977 ft | 348 kts | 44° |
| 2026-04-22 10:07 | 34.83145 | 33.80068 | 4401 ft | 338 kts | 27° |
| 2026-04-22 10:07 | 34.85299 | 33.81033 | 3820 ft | 325 kts | 14° |
| 2026-04-22 10:07 | 34.87493 | 33.81670 | 3246 ft | 319 kts | 12° |
| 2026-04-22 10:07 | 34.89625 | 33.82259 | 2668 ft | 309 kts | 12° |
| 2026-04-22 10:08 | 34.91694 | 33.82852 | 2201 ft | 299 kts | 13° |
| 2026-04-22 10:08 | 34.93678 | 33.83182 | 2029 ft | 278 kts | 356° |
| 2026-04-22 10:08 | 34.95446 | 33.82553 | 1990 ft | 256 kts | 328° |
| 2026-04-22 10:08 | 34.96696 | 33.81173 | 1997 ft | 231 kts | 304° |
| 2026-04-22 10:09 | 34.97402 | 33.79536 | 1989 ft | 207 kts | 289° |
| 2026-04-22 10:09 | 34.97714 | 33.77933 | 1977 ft | 189 kts | 272° |
| 2026-04-22 10:09 | 34.97654 | 33.76426 | 1980 ft | 169 kts | 258° |
| 2026-04-22 10:09 | 34.97316 | 33.75083 | 1986 ft | 164 kts | 243° |
| 2026-04-22 10:10 | 34.96708 | 33.73930 | 1991 ft | 161 kts | 228° |
| 2026-04-22 10:10 | 34.95960 | 33.72900 | 1977 ft | 164 kts | 225° |
| 2026-04-22 10:10 | 34.95155 | 33.71894 | 1795 ft | 163 kts | 224° |
| 2026-04-22 10:10 | 34.94381 | 33.70949 | 1637 ft | 148 kts | 223° |
| 2026-04-22 10:11 | 34.93689 | 33.70105 | 1448 ft | 136 kts | 223° |
| 2026-04-22 10:11 | 34.93036 | 33.69308 | 1282 ft | 131 kts | 222° |
| 2026-04-22 10:11 | 34.92384 | 33.68513 | 1124 ft | 133 kts | 222° |
| 2026-04-22 10:11 | 34.91730 | 33.67708 | 944 ft | 134 kts | 222° |
| 2026-04-22 10:12 | 34.91072 | 33.66912 | 773 ft | 132 kts | 222° |
| 2026-04-22 10:12 | 34.90427 | 33.66113 | 649 ft | 132 kts | 222° |
| 2026-04-22 10:12 | 34.89767 | 33.65313 | 479 ft | 136 kts | 222° |
| 2026-04-22 10:12 | 34.89101 | 33.64504 | 303 ft | 134 kts | 222° |
| 2026-04-22 10:13 | 34.88453 | 33.63693 | 374 ft | 140 kts | 225° |
| 2026-04-22 10:13 | 34.87792 | 33.62829 | 1283 ft | 150 kts | 224° |
| 2026-04-22 10:13 | 34.87003 | 33.61741 | 1608 ft | 192 kts | 227° |
| 2026-04-22 10:13 | 34.86125 | 33.60419 | 2128 ft | 213 kts | 227° |
| 2026-04-22 10:14 | 34.85041 | 33.59148 | 2016 ft | 215 kts | 221° |
| 2026-04-22 10:14 | 34.83948 | 33.57924 | 2000 ft | 212 kts | 220° |
| 2026-04-22 10:14 | 34.82649 | 33.57128 | 1999 ft | 211 kts | 191° |
| 2026-04-22 10:14 | 34.81183 | 33.57026 | 1981 ft | 213 kts | 168° |
| 2026-04-22 10:15 | 34.79923 | 33.57920 | 1992 ft | 214 kts | 131° |
| 2026-04-22 10:15 | 34.79313 | 33.59532 | 1998 ft | 217 kts | 99° |
| 2026-04-22 10:15 | 34.79412 | 33.61362 | 2000 ft | 219 kts | 80° |
| 2026-04-22 10:15 | 34.79727 | 33.63186 | 2001 ft | 221 kts | 79° |
| 2026-04-22 10:16 | 34.80047 | 33.65015 | 1998 ft | 221 kts | 79° |
| 2026-04-22 10:16 | 34.80365 | 33.66845 | 1992 ft | 221 kts | 79° |
| 2026-04-22 10:16 | 34.80682 | 33.68677 | 1985 ft | 220 kts | 78° |
| 2026-04-22 10:16 | 34.81413 | 33.70292 | 1994 ft | 221 kts | 45° |
| 2026-04-22 10:17 | 34.82550 | 33.71563 | 1993 ft | 222 kts | 44° |
| 2026-04-22 10:17 | 34.83672 | 33.72870 | 1991 ft | 223 kts | 45° |
| 2026-04-22 10:17 | 34.84772 | 33.74172 | 1994 ft | 224 kts | 45° |
| 2026-04-22 10:17 | 34.85887 | 33.75509 | 1990 ft | 224 kts | 46° |
| 2026-04-22 10:18 | 34.86981 | 33.76838 | 1978 ft | 218 kts | 46° |
| 2026-04-22 10:18 | 34.88008 | 33.78090 | 1975 ft | 198 kts | 46° |
| 2026-04-22 10:18 | 34.88933 | 33.79224 | 1959 ft | 179 kts | 46° |
| 2026-04-22 10:18 | 34.89823 | 33.80192 | 1967 ft | 173 kts | 28° |
| 2026-04-22 10:19 | 34.90992 | 33.80396 | 1891 ft | 174 kts | 343° |
| 2026-04-22 10:19 | 34.91990 | 33.79617 | 1805 ft | 172 kts | 314° |
| 2026-04-22 10:19 | 34.92853 | 33.78594 | 1727 ft | 173 kts | 314° |
| 2026-04-22 10:19 | 34.93712 | 33.77583 | 1629 ft | 171 kts | 314° |
| 2026-04-22 10:20 | 34.94574 | 33.76566 | 1527 ft | 171 kts | 312° |
| 2026-04-22 10:20 | 34.95048 | 33.75298 | 1483 ft | 165 kts | 262° |
| 2026-04-22 10:20 | 34.94777 | 33.73948 | 1518 ft | 166 kts | 253° |
| 2026-04-22 10:20 | 34.94520 | 33.72633 | 1481 ft | 151 kts | 255° |
| 2026-04-22 10:21 | 34.94306 | 33.71443 | 1497 ft | 143 kts | 253° |
| 2026-04-22 10:21 | 34.93818 | 33.70441 | 1491 ft | 137 kts | 223° |
| 2026-04-22 10:21 | 34.93179 | 33.69548 | 1324 ft | 140 kts | 226° |
| 2026-04-22 10:21 | 34.92522 | 33.68691 | 1150 ft | 137 kts | 223° |
| 2026-04-22 10:22 | 34.91860 | 33.67869 | 979 ft | 136 kts | 223° |
| 2026-04-22 10:22 | 34.91187 | 33.67044 | 779 ft | 137 kts | 222° |
| 2026-04-22 10:22 | 34.90515 | 33.66228 | 634 ft | 137 kts | 222° |
| 2026-04-22 10:22 | 34.89841 | 33.65401 | 454 ft | 138 kts | 223° |
| 2026-04-22 10:23 | 34.89161 | 33.64576 | 316 ft | 138 kts | 222° |
| 2026-04-22 10:23 | 34.88485 | 33.63752 | 163 ft | 139 kts | 223° |
| 2026-04-22 10:23 | 34.87811 | 33.62927 | 23 ft | 129 kts | 223° |
| 2026-04-22 10:23 | 34.87252 | 33.62245 | 17 ft | 81 kts | 226° |
| 2026-04-22 10:24 | 34.87053 | 33.61989 | 21 ft | 25 kts | 230° |
| 2026-04-22 10:24 | 34.86975 | 33.61809 | 21 ft | 23 kts | 253° |
| 2026-04-22 10:24 | 34.86936 | 33.61633 | 18 ft | 21 kts | 254° |
| 2026-04-22 10:24 | 34.86897 | 33.61465 | 18 ft | 21 kts | 247° |
| 2026-04-22 10:25 | 34.86801 | 33.61333 | 18 ft | 22 kts | 224° |
| 2026-04-22 10:25 | 34.86691 | 33.61199 | 19 ft | 22 kts | 227° |
| 2026-04-22 10:25 | 34.86638 | 33.61098 | 20 ft | 12 kts | 277° |
| 2026-04-22 10:25 | 34.86697 | 33.61011 | 20 ft | 15 kts | 314° |
| 2026-04-22 10:26 | 34.86760 | 33.60934 | 19 ft | 6 kts | 315° |
| 2026-04-22 10:26 | 34.86787 | 33.60937 | 19 ft | 5 kts | 36° |
| 2026-04-22 10:26 | 34.86809 | 33.60962 | 19 ft | 4 kts | 44° |
| 2026-04-22 10:26 | 34.86826 | 33.60983 | 19 ft | 3 kts | 45° |
| 2026-04-22 10:27 | 34.86837 | 33.60996 | 19 ft | 0 kts | 46° |